메인 페이지
METAR-TAF:

METAR-TAF

공항 :

서울공항

성남, 대한민국

위도: 37-26N, 경도: 127-07E, 고도: 20m

현재 날씨관측

예보는 1 시간 17분 전, 14:00시(UTC)에 발표되었습니다.
북동5kt
온도 30°C
습도 66%
기압 1006 hPa
시정 10km 이상
고도 20000ft 상공 구름 조금

METAR: RKSM 151400Z 04005KT 9999 FEW200 30/23 A2972

시각: 00:17 (15:17 UTC)

예보

예보는 4 시간 17분 전, 11:00시(UTC)에 발표되었습니다.
예보 대상 시간: 15일 12시부터 16일 18시까지 (UTC)
6kt
시정 10km 이상
고도 4000ft 상공 구름 많음
고도 20000ft 상공 구름 많음
전환 중
16일 03시부터 16일 04시까지 (UTC)
동북동11kt
시정 10km 이상
고도 4000ft 상공 구름 보통
고도 20000ft 상공 구름 보통

TAF: RKSM 151100Z 1512/1618 36006KT 9999 BKN040 BKN200 BECMG 1603/1604 06011KT 9999 SCT040 SCT200 TN25/1520Z TX33/1606Z

4,000개 이상의 공항 관측 자료 및 예보 (METAR 및 TAF 보고).

지도상에서 검색 가능한 기상관측소가 노란 점과 빨간 점으로 표시되어 있습니다.

기상관측소 명을 보려면 표시 위로 마우스를 이동하세요.

날씨 관측과 예보를 보려면 클릭하세요.

지도 변경 : 확대하려면 엑스 표시가 있는 녹색 버튼, 축소하려면 빼기 표시가 있는 녹색 버튼, 다음 페이지의 지도를 보려면 녹색 화살표를 클릭하세요.


METAR-TAF: